X  Schließen METAR Luftfahrt Wetterdaten     EDDL Düsseldorf Airport
Temperatur
15°C Temperatur
7°C Taupunkt
59% Feuchtigkeit



Wind
10 KM/H
6 MPS
3 M/S
5 KTS



310°
NW
Aktuelle Wetterlage

Klar Klar
Luftdruck 1012.92 (hPa) - 29.91 (inHg)
Sichtweite 6.2 (Meile) - 10 (Km)
Flughafen
Flughafen Code EDDL

Position : Düsseldorf Airport
Entfernung: 30 (Km)

Metar:
EDDL 251720Z AUTO 31005KT CAVOK 15/07 Q1013 NOSIG

Zeit: 25-09-2022 19:20 CEST